DLH6LC EDDF-EIDW
Flight info
| Callsign | DLH6LC |
|---|---|
| Flight time | 1h 42m |
| Altitude | 38000 |
| Route | OBOKA3M OBOKA Z28 DIBIR DCT BUDIP DCT RAVLO Y70 OTBED L60 PENIL UL28 LELDO M145 BAGSO BAGSO4L |
| Aircraft | A320/M-SDE2E3FGIJ1LORWXYZ/HB1 |
Departure
| Time | 2026-04-16 13:08 |
|---|---|
| Airport | Frankfurt Main Airport (EDDF) |
Arrival
| Time | 2026-04-16 14:51 |
|---|---|
| Airport | Dublin Airport (EIDW) |
| Time | Latitude | Longitude | Altitude | Speed | Heading |
|---|---|---|---|---|---|
| 2026-04-16 12:42 | 50.04606 | 8.56776 | 365 ft | 0 kts | 294° |
| 2026-04-16 12:58 | 50.04604 | 8.56783 | 356 ft | 3 kts | 294° |
| 2026-04-16 12:59 | 50.04594 | 8.56821 | 363 ft | 4 kts | 294° |
| 2026-04-16 12:59 | 50.04583 | 8.56857 | 364 ft | 4 kts | 282° |
| 2026-04-16 12:59 | 50.04585 | 8.56893 | 363 ft | 4 kts | 222° |
| 2026-04-16 13:00 | 50.04611 | 8.56913 | 365 ft | 3 kts | 193° |
| 2026-04-16 13:00 | 50.04585 | 8.56903 | 363 ft | 4 kts | 193° |
| 2026-04-16 13:00 | 50.04559 | 8.56894 | 361 ft | 4 kts | 193° |
| 2026-04-16 13:00 | 50.04533 | 8.56884 | 359 ft | 3 kts | 193° |
| 2026-04-16 13:01 | 50.04529 | 8.56883 | 359 ft | 0 kts | 193° |
| 2026-04-16 13:03 | 50.04523 | 8.56881 | 362 ft | 3 kts | 193° |
| 2026-04-16 13:03 | 50.04481 | 8.56865 | 359 ft | 9 kts | 193° |
| 2026-04-16 13:03 | 50.04400 | 8.56844 | 362 ft | 14 kts | 187° |
| 2026-04-16 13:04 | 50.04289 | 8.56835 | 362 ft | 16 kts | 159° |
| 2026-04-16 13:04 | 50.04278 | 8.56910 | 359 ft | 10 kts | 77° |
| 2026-04-16 13:04 | 50.04318 | 8.57071 | 362 ft | 21 kts | 69° |
| 2026-04-16 13:04 | 50.04368 | 8.57286 | 362 ft | 20 kts | 72° |
| 2026-04-16 13:05 | 50.04410 | 8.57479 | 363 ft | 16 kts | 64° |
| 2026-04-16 13:05 | 50.04426 | 8.57591 | 368 ft | 6 kts | 103° |
| 2026-04-16 13:05 | 50.04415 | 8.57625 | 365 ft | 4 kts | 124° |
| 2026-04-16 13:05 | 50.04355 | 8.57682 | 365 ft | 12 kts | 153° |
| 2026-04-16 13:06 | 50.04288 | 8.57715 | 362 ft | 8 kts | 198° |
| 2026-04-16 13:06 | 50.04268 | 8.57672 | 368 ft | 0 kts | 249° |
| 2026-04-16 13:07 | 50.04250 | 8.57597 | 366 ft | 33 kts | 249° |
| 2026-04-16 13:07 | 50.04078 | 8.56906 | 363 ft | 101 kts | 250° |
| 2026-04-16 13:07 | 50.03764 | 8.55593 | 353 ft | 155 kts | 248° |
| 2026-04-16 13:08 | 50.03349 | 8.53897 | 756 ft | 165 kts | 247° |
| 2026-04-16 13:08 | 50.02962 | 8.52250 | 1545 ft | 162 kts | 250° |
| 2026-04-16 13:08 | 50.02504 | 8.50584 | 2054 ft | 178 kts | 234° |
| 2026-04-16 13:08 | 50.01426 | 8.49475 | 2420 ft | 200 kts | 198° |
| 2026-04-16 13:09 | 50.00047 | 8.48853 | 2891 ft | 215 kts | 198° |
| 2026-04-16 13:09 | 49.98577 | 8.48126 | 3516 ft | 226 kts | 207° |
| 2026-04-16 13:09 | 49.97313 | 8.46586 | 4081 ft | 244 kts | 235° |
| 2026-04-16 13:09 | 49.96735 | 8.44058 | 4752 ft | 258 kts | 269° |
| 2026-04-16 13:10 | 49.97160 | 8.41371 | 5689 ft | 264 kts | 301° |
| 2026-04-16 13:10 | 49.98411 | 8.39268 | 6641 ft | 268 kts | 316° |
| 2026-04-16 13:10 | 49.99817 | 8.37346 | 7561 ft | 272 kts | 317° |
| 2026-04-16 13:10 | 50.01255 | 8.35420 | 8474 ft | 275 kts | 317° |
| 2026-04-16 13:11 | 50.02710 | 8.33472 | 9358 ft | 279 kts | 317° |
| 2026-04-16 13:11 | 50.04186 | 8.31480 | 10204 ft | 283 kts | 317° |
| 2026-04-16 13:11 | 50.05699 | 8.29432 | 10676 ft | 299 kts | 317° |
| 2026-04-16 13:11 | 50.07324 | 8.27222 | 10896 ft | 323 kts | 317° |
| 2026-04-16 13:12 | 50.09057 | 8.24860 | 11276 ft | 339 kts | 317° |
| 2026-04-16 13:12 | 50.10844 | 8.22422 | 11993 ft | 344 kts | 317° |
| 2026-04-16 13:12 | 50.12642 | 8.19966 | 12762 ft | 346 kts | 316° |
| 2026-04-16 13:12 | 50.14456 | 8.17485 | 13535 ft | 348 kts | 316° |
| 2026-04-16 13:13 | 50.16279 | 8.14991 | 14261 ft | 351 kts | 316° |
| 2026-04-16 13:13 | 50.18111 | 8.12479 | 14903 ft | 353 kts | 316° |
| 2026-04-16 13:13 | 50.19960 | 8.09938 | 15584 ft | 356 kts | 316° |
| 2026-04-16 13:13 | 50.21823 | 8.07376 | 16244 ft | 359 kts | 316° |
| 2026-04-16 13:14 | 50.23699 | 8.04794 | 16886 ft | 361 kts | 316° |
| 2026-04-16 13:14 | 50.25587 | 8.02192 | 17524 ft | 364 kts | 316° |
| 2026-04-16 13:14 | 50.27488 | 7.99571 | 18186 ft | 367 kts | 316° |
| 2026-04-16 13:14 | 50.29410 | 7.96924 | 18791 ft | 370 kts | 316° |
| 2026-04-16 13:15 | 50.31340 | 7.94262 | 19362 ft | 372 kts | 316° |
| 2026-04-16 13:15 | 50.33280 | 7.91578 | 19926 ft | 374 kts | 316° |
| 2026-04-16 13:15 | 50.35228 | 7.88881 | 20495 ft | 376 kts | 316° |
| 2026-04-16 13:15 | 50.37191 | 7.86161 | 21055 ft | 378 kts | 316° |
| 2026-04-16 13:16 | 50.39165 | 7.83423 | 21602 ft | 381 kts | 316° |
| 2026-04-16 13:16 | 50.41148 | 7.80665 | 22135 ft | 383 kts | 316° |
| 2026-04-16 13:16 | 50.43141 | 7.77890 | 22646 ft | 385 kts | 316° |
| 2026-04-16 13:16 | 50.45145 | 7.75096 | 23142 ft | 387 kts | 316° |
| 2026-04-16 13:17 | 50.47156 | 7.72291 | 23616 ft | 389 kts | 316° |
| 2026-04-16 13:17 | 50.49186 | 7.69455 | 24058 ft | 392 kts | 316° |
| 2026-04-16 13:17 | 50.51220 | 7.66607 | 24449 ft | 394 kts | 315° |
| 2026-04-16 13:17 | 50.53265 | 7.63737 | 24831 ft | 396 kts | 315° |
| 2026-04-16 13:18 | 50.55315 | 7.60857 | 25197 ft | 397 kts | 315° |
| 2026-04-16 13:18 | 50.57379 | 7.57956 | 25570 ft | 399 kts | 315° |
| 2026-04-16 13:18 | 50.59446 | 7.55046 | 25935 ft | 401 kts | 315° |
| 2026-04-16 13:18 | 50.61533 | 7.52114 | 26286 ft | 403 kts | 315° |
| 2026-04-16 13:19 | 50.63626 | 7.49175 | 26638 ft | 405 kts | 315° |
| 2026-04-16 13:19 | 50.65721 | 7.46228 | 26992 ft | 406 kts | 315° |
| 2026-04-16 13:19 | 50.67829 | 7.43248 | 27337 ft | 408 kts | 314° |
| 2026-04-16 13:19 | 50.69940 | 7.40258 | 27675 ft | 410 kts | 314° |
| 2026-04-16 13:20 | 50.72059 | 7.37253 | 28010 ft | 411 kts | 314° |
| 2026-04-16 13:20 | 50.74141 | 7.34162 | 28336 ft | 411 kts | 309° |
| 2026-04-16 13:20 | 50.75913 | 7.30657 | 28645 ft | 409 kts | 302° |
| 2026-04-16 13:20 | 50.77548 | 7.26988 | 28932 ft | 411 kts | 302° |
| 2026-04-16 13:21 | 50.79198 | 7.23290 | 29234 ft | 412 kts | 302° |
| 2026-04-16 13:21 | 50.80848 | 7.19590 | 29518 ft | 414 kts | 302° |
| 2026-04-16 13:21 | 50.82505 | 7.15872 | 29782 ft | 415 kts | 302° |
| 2026-04-16 13:21 | 50.84166 | 7.12142 | 30050 ft | 416 kts | 302° |
| 2026-04-16 13:22 | 50.85825 | 7.08409 | 30400 ft | 415 kts | 302° |
| 2026-04-16 13:22 | 50.87476 | 7.04685 | 30725 ft | 413 kts | 302° |
| 2026-04-16 13:22 | 50.89118 | 7.00982 | 31064 ft | 411 kts | 302° |
| 2026-04-16 13:22 | 50.90754 | 6.97299 | 31408 ft | 408 kts | 302° |
| 2026-04-16 13:23 | 50.92380 | 6.93631 | 31752 ft | 406 kts | 302° |
| 2026-04-16 13:23 | 50.93989 | 6.89988 | 32104 ft | 404 kts | 302° |
| 2026-04-16 13:23 | 50.95590 | 6.86359 | 32439 ft | 401 kts | 303° |
| 2026-04-16 13:23 | 50.97181 | 6.82749 | 32782 ft | 399 kts | 303° |
| 2026-04-16 13:24 | 50.98761 | 6.79157 | 33142 ft | 397 kts | 303° |
| 2026-04-16 13:24 | 51.00330 | 6.75581 | 33495 ft | 394 kts | 303° |
| 2026-04-16 13:24 | 51.01889 | 6.72025 | 33841 ft | 392 kts | 303° |
| 2026-04-16 13:24 | 51.03434 | 6.68491 | 34194 ft | 390 kts | 303° |
| 2026-04-16 13:25 | 51.04971 | 6.64965 | 34505 ft | 388 kts | 303° |
| 2026-04-16 13:25 | 51.06505 | 6.61446 | 34755 ft | 388 kts | 303° |
| 2026-04-16 13:25 | 51.08037 | 6.57938 | 34988 ft | 388 kts | 303° |
| 2026-04-16 13:25 | 51.09576 | 6.54415 | 35202 ft | 388 kts | 303° |
| 2026-04-16 13:26 | 51.11114 | 6.50889 | 35402 ft | 389 kts | 303° |
| 2026-04-16 13:26 | 51.12651 | 6.47356 | 35590 ft | 389 kts | 303° |
| 2026-04-16 13:26 | 51.14188 | 6.43814 | 35773 ft | 390 kts | 303° |
| 2026-04-16 13:26 | 51.15726 | 6.40266 | 35970 ft | 390 kts | 303° |
| 2026-04-16 13:27 | 51.17264 | 6.36715 | 36143 ft | 391 kts | 303° |
| 2026-04-16 13:27 | 51.18802 | 6.33152 | 36324 ft | 391 kts | 302° |
| 2026-04-16 13:27 | 51.20338 | 6.29586 | 36496 ft | 391 kts | 302° |
| 2026-04-16 13:27 | 51.21877 | 6.26011 | 36653 ft | 392 kts | 302° |
| 2026-04-16 13:28 | 51.23416 | 6.22430 | 36811 ft | 393 kts | 302° |
| 2026-04-16 13:28 | 51.24954 | 6.18848 | 36967 ft | 393 kts | 302° |
| 2026-04-16 13:28 | 51.26499 | 6.15244 | 37118 ft | 393 kts | 302° |
| 2026-04-16 13:28 | 51.28042 | 6.11646 | 37269 ft | 394 kts | 302° |
| 2026-04-16 13:29 | 51.29566 | 6.08024 | 37426 ft | 394 kts | 301° |
| 2026-04-16 13:29 | 51.31066 | 6.04371 | 37565 ft | 394 kts | 301° |
| 2026-04-16 13:29 | 51.32551 | 6.00703 | 37712 ft | 395 kts | 301° |
| 2026-04-16 13:29 | 51.34038 | 5.97013 | 37855 ft | 395 kts | 301° |
| 2026-04-16 13:30 | 51.35525 | 5.93324 | 37996 ft | 395 kts | 301° |
| 2026-04-16 13:30 | 51.37015 | 5.89653 | 38175 ft | 395 kts | 302° |
| 2026-04-16 13:30 | 51.38702 | 5.86159 | 38227 ft | 400 kts | 310° |
| 2026-04-16 13:31 | 51.42545 | 5.79697 | 38220 ft | 402 kts | 310° |
| 2026-04-16 13:31 | 51.46392 | 5.73215 | 38221 ft | 402 kts | 310° |
| 2026-04-16 13:32 | 51.50228 | 5.66716 | 38220 ft | 402 kts | 310° |
| 2026-04-16 13:32 | 51.54063 | 5.60206 | 38221 ft | 402 kts | 310° |
| 2026-04-16 13:33 | 51.57901 | 5.53683 | 38225 ft | 402 kts | 310° |
| 2026-04-16 13:33 | 51.61740 | 5.47147 | 38227 ft | 403 kts | 310° |
| 2026-04-16 13:34 | 51.65577 | 5.40599 | 38231 ft | 403 kts | 310° |
| 2026-04-16 13:34 | 51.69415 | 5.34028 | 38233 ft | 404 kts | 310° |
| 2026-04-16 13:35 | 51.73249 | 5.27448 | 38234 ft | 404 kts | 309° |
| 2026-04-16 13:35 | 51.77080 | 5.20839 | 38237 ft | 404 kts | 309° |
| 2026-04-16 13:36 | 51.80908 | 5.14226 | 38236 ft | 404 kts | 309° |
| 2026-04-16 13:36 | 51.84735 | 5.07603 | 38235 ft | 404 kts | 309° |
| 2026-04-16 13:37 | 51.88556 | 5.00964 | 38238 ft | 404 kts | 309° |
| 2026-04-16 13:37 | 51.92371 | 4.94306 | 38241 ft | 404 kts | 309° |
| 2026-04-16 13:38 | 51.96159 | 4.87701 | 38242 ft | 404 kts | 309° |
| 2026-04-16 13:38 | 51.99973 | 4.81035 | 38243 ft | 404 kts | 309° |
| 2026-04-16 13:39 | 52.03783 | 4.74358 | 38247 ft | 404 kts | 309° |
| 2026-04-16 13:39 | 52.07586 | 4.67662 | 38244 ft | 404 kts | 309° |
| 2026-04-16 13:40 | 52.11385 | 4.60958 | 38242 ft | 404 kts | 309° |
| 2026-04-16 13:40 | 52.15176 | 4.54247 | 38236 ft | 404 kts | 309° |
| 2026-04-16 13:41 | 52.18972 | 4.47521 | 38233 ft | 404 kts | 308° |
| 2026-04-16 13:41 | 52.22760 | 4.40792 | 38234 ft | 404 kts | 308° |
| 2026-04-16 13:42 | 52.26544 | 4.34048 | 38248 ft | 404 kts | 308° |
| 2026-04-16 13:42 | 52.30325 | 4.27290 | 38237 ft | 403 kts | 308° |
| 2026-04-16 13:43 | 52.34094 | 4.20521 | 38233 ft | 403 kts | 308° |
| 2026-04-16 13:43 | 52.37857 | 4.13747 | 38227 ft | 403 kts | 308° |
| 2026-04-16 13:44 | 52.41623 | 4.06959 | 38229 ft | 404 kts | 308° |
| 2026-04-16 13:44 | 52.45388 | 4.00150 | 38225 ft | 404 kts | 308° |
| 2026-04-16 13:45 | 52.49150 | 3.93326 | 38227 ft | 404 kts | 308° |
| 2026-04-16 13:45 | 52.52915 | 3.86484 | 38224 ft | 405 kts | 308° |
| 2026-04-16 13:46 | 52.56682 | 3.79616 | 38221 ft | 405 kts | 308° |
| 2026-04-16 13:46 | 52.60442 | 3.72728 | 38218 ft | 405 kts | 308° |
| 2026-04-16 13:47 | 52.64199 | 3.65832 | 38213 ft | 406 kts | 308° |
| 2026-04-16 13:47 | 52.67964 | 3.58927 | 38211 ft | 406 kts | 308° |
| 2026-04-16 13:48 | 52.71728 | 3.52000 | 38210 ft | 407 kts | 307° |
| 2026-04-16 13:48 | 52.75490 | 3.45048 | 38210 ft | 407 kts | 307° |
| 2026-04-16 13:49 | 52.79249 | 3.38078 | 38209 ft | 407 kts | 307° |
| 2026-04-16 13:49 | 52.83001 | 3.31093 | 38205 ft | 407 kts | 307° |
| 2026-04-16 13:50 | 52.86753 | 3.24088 | 38205 ft | 408 kts | 307° |
| 2026-04-16 13:50 | 52.90371 | 3.16916 | 38199 ft | 403 kts | 299° |
| 2026-04-16 13:51 | 52.92543 | 3.08524 | 38199 ft | 397 kts | 281° |
| 2026-04-16 13:51 | 52.93715 | 2.99612 | 38196 ft | 397 kts | 281° |
| 2026-04-16 13:52 | 52.94898 | 2.90690 | 38195 ft | 397 kts | 281° |
| 2026-04-16 13:52 | 52.96064 | 2.81761 | 38187 ft | 397 kts | 281° |
| 2026-04-16 13:53 | 52.97220 | 2.72818 | 38189 ft | 397 kts | 281° |
| 2026-04-16 13:53 | 52.98370 | 2.63870 | 38189 ft | 397 kts | 281° |
| 2026-04-16 13:54 | 52.99516 | 2.54920 | 38188 ft | 397 kts | 281° |
| 2026-04-16 13:54 | 53.00656 | 2.45971 | 38187 ft | 397 kts | 280° |
| 2026-04-16 13:55 | 53.01794 | 2.37018 | 38182 ft | 397 kts | 280° |
| 2026-04-16 13:55 | 53.02918 | 2.28076 | 38183 ft | 396 kts | 280° |
| 2026-04-16 13:56 | 53.04034 | 2.19125 | 38179 ft | 396 kts | 280° |
| 2026-04-16 13:56 | 53.05138 | 2.10170 | 38173 ft | 396 kts | 280° |
| 2026-04-16 13:57 | 53.06247 | 2.01212 | 38174 ft | 396 kts | 280° |
| 2026-04-16 13:57 | 53.07351 | 1.92251 | 38172 ft | 396 kts | 280° |
| 2026-04-16 13:58 | 53.08985 | 1.78803 | 38166 ft | 396 kts | 279° |
| 2026-04-16 13:58 | 53.10061 | 1.69828 | 38164 ft | 397 kts | 279° |
| 2026-04-16 13:59 | 53.11140 | 1.60835 | 38165 ft | 397 kts | 279° |
| 2026-04-16 13:59 | 53.12204 | 1.51844 | 38166 ft | 397 kts | 279° |
| 2026-04-16 14:00 | 53.13263 | 1.42857 | 38164 ft | 397 kts | 279° |
| 2026-04-16 14:00 | 53.14319 | 1.33858 | 38159 ft | 397 kts | 279° |
| 2026-04-16 14:01 | 53.15370 | 1.24854 | 38163 ft | 397 kts | 279° |
| 2026-04-16 14:01 | 53.16406 | 1.15855 | 38169 ft | 397 kts | 279° |
| 2026-04-16 14:02 | 53.17435 | 1.06846 | 38165 ft | 397 kts | 279° |
| 2026-04-16 14:02 | 53.18465 | 0.97838 | 38159 ft | 396 kts | 279° |
| 2026-04-16 14:03 | 53.19485 | 0.88828 | 38152 ft | 396 kts | 278° |
| 2026-04-16 14:03 | 53.20500 | 0.79832 | 38147 ft | 395 kts | 278° |
| 2026-04-16 14:04 | 53.21503 | 0.70840 | 38138 ft | 395 kts | 278° |
| 2026-04-16 14:04 | 53.22493 | 0.61852 | 38143 ft | 395 kts | 278° |
| 2026-04-16 14:05 | 53.23476 | 0.52848 | 38142 ft | 395 kts | 278° |
| 2026-04-16 14:05 | 53.24452 | 0.43862 | 38133 ft | 394 kts | 278° |
| 2026-04-16 14:06 | 53.25428 | 0.34882 | 38130 ft | 394 kts | 278° |
| 2026-04-16 14:06 | 53.26397 | 0.25892 | 38128 ft | 394 kts | 278° |
| 2026-04-16 14:07 | 53.27356 | 0.16906 | 38128 ft | 394 kts | 278° |
| 2026-04-16 14:07 | 53.28306 | 0.07919 | 38129 ft | 394 kts | 278° |
| 2026-04-16 14:08 | 53.29249 | -0.01068 | 38132 ft | 393 kts | 278° |
| 2026-04-16 14:08 | 53.30179 | -0.10063 | 38133 ft | 393 kts | 278° |
| 2026-04-16 14:09 | 53.31113 | -0.19057 | 38138 ft | 393 kts | 278° |
| 2026-04-16 14:09 | 53.32042 | -0.28043 | 38140 ft | 393 kts | 277° |
| 2026-04-16 14:10 | 53.32953 | -0.37021 | 38132 ft | 392 kts | 277° |
| 2026-04-16 14:10 | 53.33859 | -0.46000 | 38135 ft | 392 kts | 277° |
| 2026-04-16 14:11 | 53.34761 | -0.54976 | 38131 ft | 392 kts | 277° |
| 2026-04-16 14:11 | 53.35648 | -0.63946 | 38129 ft | 392 kts | 277° |
| 2026-04-16 14:12 | 53.36534 | -0.72912 | 38129 ft | 391 kts | 277° |
| 2026-04-16 14:12 | 53.37415 | -0.81885 | 38125 ft | 391 kts | 277° |
| 2026-04-16 14:13 | 53.38283 | -0.90859 | 38123 ft | 391 kts | 277° |
| 2026-04-16 14:13 | 53.39146 | -0.99825 | 38114 ft | 391 kts | 277° |
| 2026-04-16 14:14 | 53.40008 | -1.08799 | 38118 ft | 391 kts | 277° |
| 2026-04-16 14:14 | 53.40855 | -1.17767 | 38114 ft | 390 kts | 276° |
| 2026-04-16 14:15 | 53.41693 | -1.26737 | 38107 ft | 390 kts | 276° |
| 2026-04-16 14:15 | 53.42531 | -1.35702 | 38108 ft | 390 kts | 276° |
| 2026-04-16 14:16 | 53.43358 | -1.44671 | 38110 ft | 390 kts | 276° |
| 2026-04-16 14:16 | 53.44179 | -1.53630 | 38101 ft | 390 kts | 276° |
| 2026-04-16 14:17 | 53.44996 | -1.62596 | 38108 ft | 390 kts | 276° |
| 2026-04-16 14:17 | 53.45803 | -1.71570 | 38099 ft | 389 kts | 276° |
| 2026-04-16 14:18 | 53.46600 | -1.80533 | 38099 ft | 389 kts | 276° |
| 2026-04-16 14:18 | 53.47399 | -1.89506 | 38104 ft | 390 kts | 276° |
| 2026-04-16 14:19 | 53.48186 | -1.98490 | 38091 ft | 390 kts | 276° |
| 2026-04-16 14:19 | 53.48967 | -2.07487 | 38095 ft | 390 kts | 276° |
| 2026-04-16 14:20 | 53.49736 | -2.16498 | 38094 ft | 391 kts | 276° |
| 2026-04-16 14:20 | 53.50504 | -2.25522 | 38087 ft | 391 kts | 275° |
| 2026-04-16 14:21 | 53.51270 | -2.34558 | 38092 ft | 392 kts | 275° |
| 2026-04-16 14:21 | 53.52027 | -2.43604 | 38091 ft | 392 kts | 275° |
| 2026-04-16 14:22 | 53.52776 | -2.52662 | 38097 ft | 392 kts | 275° |
| 2026-04-16 14:22 | 53.53512 | -2.61736 | 38096 ft | 393 kts | 275° |
| 2026-04-16 14:23 | 53.54253 | -2.70818 | 38097 ft | 393 kts | 275° |
| 2026-04-16 14:23 | 53.54995 | -2.79906 | 38095 ft | 393 kts | 275° |
| 2026-04-16 14:24 | 53.55724 | -2.88994 | 38099 ft | 393 kts | 275° |
| 2026-04-16 14:24 | 53.56444 | -2.98099 | 38099 ft | 394 kts | 275° |
| 2026-04-16 14:25 | 53.57153 | -3.07212 | 38105 ft | 393 kts | 274° |
| 2026-04-16 14:25 | 53.57852 | -3.16325 | 38103 ft | 393 kts | 274° |
| 2026-04-16 14:26 | 53.58552 | -3.25430 | 38107 ft | 393 kts | 274° |
| 2026-04-16 14:26 | 53.59248 | -3.34554 | 38104 ft | 393 kts | 274° |
| 2026-04-16 14:27 | 53.59932 | -3.43668 | 37745 ft | 392 kts | 274° |
| 2026-04-16 14:27 | 53.60272 | -3.48203 | 37365 ft | 389 kts | 274° |
| 2026-04-16 14:27 | 53.60606 | -3.52679 | 36839 ft | 384 kts | 274° |
| 2026-04-16 14:28 | 53.60934 | -3.57123 | 36171 ft | 383 kts | 273° |
| 2026-04-16 14:28 | 53.61259 | -3.61557 | 35490 ft | 382 kts | 273° |
| 2026-04-16 14:28 | 53.61688 | -3.65986 | 34739 ft | 386 kts | 279° |
| 2026-04-16 14:28 | 53.62537 | -3.70315 | 33843 ft | 394 kts | 286° |
| 2026-04-16 14:29 | 53.63567 | -3.74596 | 32801 ft | 397 kts | 286° |
| 2026-04-16 14:29 | 53.64606 | -3.78909 | 31789 ft | 400 kts | 286° |
| 2026-04-16 14:29 | 53.65652 | -3.83264 | 30825 ft | 402 kts | 287° |
| 2026-04-16 14:29 | 53.66698 | -3.87642 | 29734 ft | 406 kts | 287° |
| 2026-04-16 14:30 | 53.67745 | -3.92026 | 29010 ft | 401 kts | 287° |
| 2026-04-16 14:30 | 53.68777 | -3.96345 | 28345 ft | 395 kts | 287° |
| 2026-04-16 14:30 | 53.69790 | -4.00601 | 27691 ft | 390 kts | 287° |
| 2026-04-16 14:30 | 53.70791 | -4.04820 | 27043 ft | 386 kts | 286° |
| 2026-04-16 14:31 | 53.71541 | -4.09097 | 26424 ft | 377 kts | 277° |
| 2026-04-16 14:31 | 53.71853 | -4.13433 | 25805 ft | 370 kts | 270° |
| 2026-04-16 14:31 | 53.72006 | -4.17746 | 25224 ft | 367 kts | 270° |
| 2026-04-16 14:31 | 53.72165 | -4.22025 | 24627 ft | 365 kts | 271° |
| 2026-04-16 14:32 | 53.72328 | -4.26277 | 24049 ft | 363 kts | 271° |
| 2026-04-16 14:32 | 53.72490 | -4.30518 | 23448 ft | 362 kts | 271° |
| 2026-04-16 14:32 | 53.72647 | -4.34737 | 22843 ft | 359 kts | 271° |
| 2026-04-16 14:32 | 53.72800 | -4.38924 | 22322 ft | 356 kts | 270° |
| 2026-04-16 14:33 | 53.72950 | -4.43073 | 21802 ft | 353 kts | 270° |
| 2026-04-16 14:33 | 53.73100 | -4.47176 | 21312 ft | 350 kts | 270° |
| 2026-04-16 14:33 | 53.73251 | -4.51253 | 20823 ft | 347 kts | 270° |
| 2026-04-16 14:33 | 53.73396 | -4.55283 | 20360 ft | 343 kts | 270° |
| 2026-04-16 14:34 | 53.73535 | -4.59290 | 19898 ft | 340 kts | 270° |
| 2026-04-16 14:34 | 53.73670 | -4.63248 | 19430 ft | 337 kts | 270° |
| 2026-04-16 14:34 | 53.73801 | -4.67189 | 19001 ft | 335 kts | 270° |
| 2026-04-16 14:34 | 53.73930 | -4.71102 | 18550 ft | 334 kts | 270° |
| 2026-04-16 14:35 | 53.74057 | -4.75001 | 18053 ft | 333 kts | 270° |
| 2026-04-16 14:35 | 53.74185 | -4.78888 | 17576 ft | 331 kts | 270° |
| 2026-04-16 14:35 | 53.74314 | -4.82755 | 17103 ft | 330 kts | 270° |
| 2026-04-16 14:35 | 53.74442 | -4.86610 | 16629 ft | 328 kts | 270° |
| 2026-04-16 14:36 | 53.74505 | -4.90429 | 16299 ft | 323 kts | 262° |
| 2026-04-16 14:36 | 53.73969 | -4.94129 | 16106 ft | 335 kts | 245° |
| 2026-04-16 14:36 | 53.72686 | -4.97340 | 15770 ft | 329 kts | 227° |
| 2026-04-16 14:36 | 53.71096 | -5.00077 | 15331 ft | 326 kts | 225° |
| 2026-04-16 14:37 | 53.69506 | -5.02765 | 14891 ft | 323 kts | 225° |
| 2026-04-16 14:37 | 53.67923 | -5.05423 | 14449 ft | 321 kts | 225° |
| 2026-04-16 14:37 | 53.66351 | -5.08056 | 14021 ft | 318 kts | 225° |
| 2026-04-16 14:37 | 53.64788 | -5.10681 | 13560 ft | 316 kts | 225° |
| 2026-04-16 14:38 | 53.63242 | -5.13285 | 13080 ft | 314 kts | 225° |
| 2026-04-16 14:38 | 53.61708 | -5.15872 | 12607 ft | 311 kts | 225° |
| 2026-04-16 14:38 | 53.60189 | -5.18435 | 12140 ft | 309 kts | 225° |
| 2026-04-16 14:38 | 53.58675 | -5.20986 | 11681 ft | 307 kts | 225° |
| 2026-04-16 14:39 | 53.57175 | -5.23512 | 11228 ft | 305 kts | 224° |
| 2026-04-16 14:39 | 53.55685 | -5.26018 | 10797 ft | 303 kts | 224° |
| 2026-04-16 14:39 | 53.54202 | -5.28510 | 10428 ft | 301 kts | 224° |
| 2026-04-16 14:39 | 53.52736 | -5.30978 | 10082 ft | 297 kts | 224° |
| 2026-04-16 14:40 | 53.51298 | -5.33393 | 9782 ft | 289 kts | 224° |
| 2026-04-16 14:40 | 53.49891 | -5.35749 | 9458 ft | 283 kts | 224° |
| 2026-04-16 14:40 | 53.48511 | -5.38053 | 9143 ft | 277 kts | 224° |
| 2026-04-16 14:40 | 53.47167 | -5.40297 | 8879 ft | 270 kts | 224° |
| 2026-04-16 14:41 | 53.45858 | -5.42479 | 8618 ft | 262 kts | 224° |
| 2026-04-16 14:41 | 53.44582 | -5.44599 | 8356 ft | 256 kts | 224° |
| 2026-04-16 14:41 | 53.43339 | -5.46663 | 8117 ft | 248 kts | 224° |
| 2026-04-16 14:41 | 53.42145 | -5.48652 | 8014 ft | 235 kts | 224° |
| 2026-04-16 14:42 | 53.41023 | -5.50536 | 8027 ft | 226 kts | 227° |
| 2026-04-16 14:42 | 53.40156 | -5.52712 | 8021 ft | 227 kts | 244° |
| 2026-04-16 14:42 | 53.39738 | -5.55267 | 8029 ft | 231 kts | 261° |
| 2026-04-16 14:42 | 53.39734 | -5.57997 | 7692 ft | 240 kts | 268° |
| 2026-04-16 14:43 | 53.39783 | -5.60794 | 7301 ft | 240 kts | 267° |
| 2026-04-16 14:43 | 53.39833 | -5.63579 | 6915 ft | 239 kts | 267° |
| 2026-04-16 14:43 | 53.39879 | -5.66356 | 6560 ft | 239 kts | 267° |
| 2026-04-16 14:43 | 53.39926 | -5.69114 | 6257 ft | 235 kts | 267° |
| 2026-04-16 14:44 | 53.39973 | -5.71808 | 5966 ft | 230 kts | 267° |
| 2026-04-16 14:44 | 53.40018 | -5.74456 | 5678 ft | 226 kts | 267° |
| 2026-04-16 14:44 | 53.40059 | -5.77068 | 5392 ft | 224 kts | 267° |
| 2026-04-16 14:44 | 53.40098 | -5.79656 | 5110 ft | 222 kts | 267° |
| 2026-04-16 14:45 | 53.40135 | -5.82229 | 4831 ft | 221 kts | 267° |
| 2026-04-16 14:45 | 53.40170 | -5.84791 | 4548 ft | 220 kts | 266° |
| 2026-04-16 14:45 | 53.40205 | -5.87335 | 4252 ft | 218 kts | 266° |
| 2026-04-16 14:45 | 53.40145 | -5.89842 | 3940 ft | 215 kts | 264° |
| 2026-04-16 14:46 | 53.40187 | -5.92337 | 3667 ft | 213 kts | 269° |
| 2026-04-16 14:46 | 53.40310 | -5.94785 | 3410 ft | 209 kts | 270° |
| 2026-04-16 14:46 | 53.40448 | -5.97188 | 3157 ft | 206 kts | 270° |
| 2026-04-16 14:46 | 53.40585 | -5.99534 | 3015 ft | 197 kts | 270° |
| 2026-04-16 14:47 | 53.40713 | -6.01755 | 2964 ft | 187 kts | 269° |
| 2026-04-16 14:47 | 53.40835 | -6.03874 | 2757 ft | 180 kts | 269° |
| 2026-04-16 14:47 | 53.40951 | -6.05916 | 2521 ft | 173 kts | 268° |
| 2026-04-16 14:47 | 53.41062 | -6.07845 | 2291 ft | 161 kts | 269° |
| 2026-04-16 14:48 | 53.41166 | -6.09680 | 2093 ft | 156 kts | 268° |
| 2026-04-16 14:48 | 53.41266 | -6.11496 | 1886 ft | 158 kts | 268° |
| 2026-04-16 14:48 | 53.41367 | -6.13235 | 1666 ft | 143 kts | 268° |
| 2026-04-16 14:48 | 53.41458 | -6.14851 | 1472 ft | 137 kts | 267° |
| 2026-04-16 14:49 | 53.41543 | -6.16426 | 1272 ft | 136 kts | 266° |
| 2026-04-16 14:49 | 53.41632 | -6.17996 | 1100 ft | 134 kts | 269° |
| 2026-04-16 14:49 | 53.41715 | -6.19560 | 902 ft | 136 kts | 271° |
| 2026-04-16 14:49 | 53.41823 | -6.21135 | 756 ft | 135 kts | 271° |
| 2026-04-16 14:50 | 53.41909 | -6.22696 | 560 ft | 136 kts | 270° |
| 2026-04-16 14:50 | 53.42024 | -6.24279 | 355 ft | 137 kts | 266° |
| 2026-04-16 14:50 | 53.42062 | -6.25800 | 214 ft | 120 kts | 271° |
| 2026-04-16 14:50 | 53.42111 | -6.26929 | 211 ft | 73 kts | 277° |
| 2026-04-16 14:51 | 53.42155 | -6.27590 | 211 ft | 47 kts | 282° |
| 2026-04-16 14:51 | 53.42234 | -6.27929 | 216 ft | 23 kts | 304° |
| 2026-04-16 14:51 | 53.42294 | -6.28092 | 211 ft | 15 kts | 309° |
| 2026-04-16 14:51 | 53.42360 | -6.28044 | 211 ft | 11 kts | 89° |
| 2026-04-16 14:53 | 53.42264 | -6.26263 | 216 ft | 26 kts | 96° |
| 2026-04-16 14:53 | 53.42262 | -6.26011 | 213 ft | 21 kts | 72° |
| 2026-04-16 14:54 | 53.42347 | -6.25826 | 211 ft | 19 kts | 47° |
| 2026-04-16 14:54 | 53.42436 | -6.25666 | 214 ft | 18 kts | 46° |
| 2026-04-16 14:54 | 53.42520 | -6.25518 | 211 ft | 17 kts | 46° |
| 2026-04-16 14:54 | 53.42605 | -6.25381 | 210 ft | 16 kts | 43° |
| 2026-04-16 14:55 | 53.42682 | -6.25257 | 211 ft | 15 kts | 45° |
| 2026-04-16 14:55 | 53.42751 | -6.25141 | 219 ft | 14 kts | 45° |
| 2026-04-16 14:55 | 53.42818 | -6.25040 | 211 ft | 13 kts | 35° |
| 2026-04-16 14:55 | 53.42878 | -6.24945 | 211 ft | 11 kts | 47° |
| 2026-04-16 14:56 | 53.42921 | -6.24868 | 211 ft | 6 kts | 47° |
| 2026-04-16 14:56 | 53.42956 | -6.24823 | 215 ft | 7 kts | 21° |
| 2026-04-16 14:56 | 53.42997 | -6.24814 | 213 ft | 4 kts | 6° |
| 2026-04-16 14:56 | 53.43005 | -6.24812 | 211 ft | 0 kts | 5° |